Alpine, Virginia
Current Conditions -  °F | °C
As of 11:15 AM on Thursday 29 Jan 2015 (Local Time) from K8W2 Reporting Station
Clear Clear  
Wind Chill: 27°   Ceiling: Unl
Heat Index: 36°   Visibility: 10mi
Dew Point: 15°   Wind: 14mph
Humidity: 44%   Direction: 220°SW
Pressure: 30.14"   Gusts: NA
Location:  38.6726°N, 78.6691°W
Report Text: K8W2 291615Z AUTO 22012KT 10SM CLR 02/M09 A3014 RMK AO1 T00201092
Loading
Personal Weather Stations






























Interactive Weather Map New forecast layout! Learn more

10-Day Weather Forecast

Advertisements
Track Severe Weather on mobile